Destruction Bay, Canada
Current Conditions -  °F | °C
As of 7:00 AM on Thursday 23 Oct 2014 (Local Time) from CYDB Reporting Station
Light Snow Light Snow  
Wind Chill: 20°   Ceiling: 10000
Heat Index: 27°   Visibility: 15mi
Dew Point: 25°   Wind: 6mph
Humidity: 93%   Direction: 310°NW
Pressure: 29.57"   Gusts: NA
Location:  61.25°N, 138.8°W
Report Text: CYDB 231400Z 31005KT 15SM -SN SCT025 OVC100 M03/M04 A2957 RMK SC3AC5 CLIMAT 0.0/-3.0/TR MM/TR CM/TR MWE/48997 SLP055
Loading
Personal Weather Stations






























Interactive Weather Map
Tropical Storm Tracking
New forecast layout! Learn more

10-Day Weather Forecast

Advertisements
Track Severe Weather on mobile